Airport View

Enter AWOS ICAO identifier for current METAR.

ex. KFNL

KUCY 221155Z AUTO 05008KT 10SM FEW039 FEW055 SCT065 12/10 A3009 RMK A01 P0002

22 Apr 2018 12:14

Frequency: 135.325

Phone: 731-885-9161

Other Area AWOS: KPHT - KM25 - KDYR - KHZD

TAF KPAH 221120Z 2212/2312 08008KT P6SM -SHRA SCT030 OVC070 FM221500 09012G18KT 4SM -SHRA SCT015 OVC030 FM221900 08016G27KT 3SM -SHRA SCT005 OVC015 FM222300 08014G25KT 2SM -SHRA OVC005 FM230600 06013G20KT 3SM -SHRA OVC006